Big Bear Station Historical Data
Daily Summary for March 4, 2018 Units:  English    Metric   Both
Next Day »
Daily Weekly Monthly Yearly Custom
  High: Low: Average:
Temperature: 38.7 °F 14.9 °F 26.8 °F
Dew Point: 23.1 °F 8.0 °F 14.2 °F
Humidity: 95% 32% 62%
Wind Speed: 6.8mph 0.0mph 1.4mph
Wind Gust: -999.0mph - -
Wind- - SSE
Pressure: 23.53 in 23.33 in -
Precipitation: 0.15 in    
Historical Graphs
 
 
Tabular Data for March 4, 2018
Time Temperature Dew Point Pressure Wind Wind Speed Wind Gust Humidity Rainfall Rate (Hourly)
00:04 24.3 °F 23.1 °F 23.33 in NNE 2.2 mph -999.0 mph 95% 0 in
00:19 23.9 °F 22.7 °F 23.34 in NE 4.2 mph -999.0 mph 95% 0 in
00:35 23.2 °F 21.5 °F 23.34 in NW 3.2 mph -999.0 mph 93% 0 in
00:50 22.8 °F 21.1 °F 23.35 in West 1.1 mph -999.0 mph 93% 0 in
01:05 22.3 °F 20.3 °F 23.35 in South 1.7 mph -999.0 mph 92% 0 in
01:20 21.6 °F 19.4 °F 23.35 in SSW 2.7 mph -999.0 mph 91% 0 in
01:36 21.4 °F 19.2 °F 23.35 in Calm   -999.0 mph 91% 0 in
01:51 20.8 °F 18.8 °F 23.35 in Calm   -999.0 mph 92% 0 in
02:06 20.5 °F 18.3 °F 23.35 in South 1.1 mph -999.0 mph 91% 0 in
02:22 20.3 °F 18.1 °F 23.34 in North 1.1 mph -999.0 mph 91% 0 in
02:37 20.1 °F 17.9 °F 23.35 in Calm   -999.0 mph 91% 0 in
06:31 14.9 °F 13.5 °F 23.39 in ESE 2.2 mph -999.0 mph 94% 0 in
06:46 14.9 °F 13.2 °F 23.39 in Calm   -999.0 mph 93% 0 in
07:01 15.4 °F 13.7 °F 23.40 in Calm   -999.0 mph 93% 0 in
07:16 16.2 °F 14.5 °F 23.41 in Calm   -999.0 mph 93% 0 in
07:32 16.9 °F 15.5 °F 23.41 in Calm   -999.0 mph 94% 0 in
07:47 19.0 °F 17.3 °F 23.41 in Calm   -999.0 mph 93% 0 in
08:02 19.9 °F 17.2 °F 23.42 in Calm   -999.0 mph 89% 0 in
08:17 20.5 °F 17.2 °F 23.43 in Calm   -999.0 mph 87% 0 in
08:32 21.7 °F 17.6 °F 23.43 in Calm   -999.0 mph 84% 0 in
08:48 22.1 °F 17.4 °F 23.44 in SSE 1.1 mph -999.0 mph 82% 0 in
09:03 22.1 °F 18.0 °F 23.44 in SSW 2.7 mph -999.0 mph 84% 0 in
09:18 22.8 °F 17.3 °F 23.44 in Calm   -999.0 mph 79% 0 in
09:33 24.1 °F 18.2 °F 23.44 in Calm   -999.0 mph 78% 0 in
09:48 26.8 °F 17.0 °F 23.45 in NW 3.2 mph -999.0 mph 66% 0 in
10:04 30.9 °F 13.5 °F 23.45 in Calm   -999.0 mph 48% 0 in
10:19 31.1 °F 12.7 °F 23.45 in NNW 2.7 mph -999.0 mph 46% 0 in
10:35 33.3 °F 9.8 °F 23.45 in NNE 3.7 mph -999.0 mph 37% 0 in
10:50 34.5 °F 12.1 °F 23.45 in NNW 3.2 mph -999.0 mph 39% 0 in
10:59 33.6 °F 11.3 °F 23.45 in Calm   -999.0 mph 39% 0 in
11:14 33.8 °F 9.0 °F 23.46 in NNE 2.2 mph -999.0 mph 35% 0 in
11:29 35.2 °F 11.5 °F 23.46 in Calm   -999.0 mph 37% 0 in
11:45 34.9 °F 8.0 °F 23.46 in NNW 2.7 mph -999.0 mph 32% 0 in
12:01 36.1 °F 12.9 °F 23.47 in NW 3.7 mph -999.0 mph 38% 0 in
12:16 36.1 °F 12.3 °F 23.47 in NE 2.2 mph -999.0 mph 37% 0 in
12:31 34.7 °F 11.7 °F 23.47 in NE 2.2 mph -999.0 mph 38% 0 in
12:46 34.7 °F 13.9 °F 23.47 in NE 4.2 mph -999.0 mph 42% 0 in
13:02 34.9 °F 12.4 °F 23.47 in NE 2.7 mph -999.0 mph 39% 0 in
13:18 38.7 °F 17.0 °F 23.46 in NE 3.2 mph -999.0 mph 41% 0 in
13:33 35.1 °F 12.6 °F 23.46 in NE 2.7 mph -999.0 mph 39% 0 in
13:48 32.9 °F 8.8 °F 23.46 in NE 2.2 mph -999.0 mph 36% 0 in
14:03 34.0 °F 8.5 °F 23.45 in NE 2.7 mph -999.0 mph 34% 0 in
14:18 35.2 °F 12.7 °F 23.45 in NE 2.7 mph -999.0 mph 39% 0 in
14:34 34.7 °F 11.1 °F 23.45 in NE 3.7 mph -999.0 mph 37% 0 in
14:49 34.5 °F 12.6 °F 23.45 in NE 4.7 mph -999.0 mph 40% 0 in
15:04 34.0 °F 14.9 °F 23.45 in NE 4.2 mph -999.0 mph 45% 0 in
15:19 33.6 °F 12.9 °F 23.45 in NNW 4.2 mph -999.0 mph 42% 0 in
15:35 33.6 °F 15.0 °F 23.45 in NNW 4.2 mph -999.0 mph 46% 0 in
15:50 32.9 °F 12.8 °F 23.46 in NNW 4.7 mph -999.0 mph 43% 0 in
16:06 32.9 °F 13.9 °F 23.46 in NW 6.8 mph -999.0 mph 45% 0 in
16:21 32.0 °F 12.0 °F 23.46 in NNW 4.7 mph -999.0 mph 43% 0 in
16:36 31.6 °F 11.1 °F 23.46 in West 2.2 mph -999.0 mph 42% 0 in
16:52 30.9 °F 11.0 °F 23.46 in ENE 2.7 mph -999.0 mph 43% 0 in
17:07 30.4 °F 12.6 °F 23.47 in Calm   -999.0 mph 47% 0 in
17:23 29.5 °F 12.2 °F 23.47 in SSE 2.7 mph -999.0 mph 48% 0 in
17:38 28.8 °F 12.5 °F 23.48 in Calm   -999.0 mph 50% 0 in
17:54 27.9 °F 13.0 °F 23.48 in Calm   -999.0 mph 53% 0 in
18:09 27.0 °F 11.7 °F 23.48 in Calm   -999.0 mph 52% 0 in
18:24 26.6 °F 13.4 °F 23.49 in Calm   -999.0 mph 57% 0 in
18:39 26.2 °F 13.0 °F 23.49 in Calm   -999.0 mph 57% 0 in
18:55 25.9 °F 13.9 °F 23.49 in NNE 1.1 mph -999.0 mph 60% 0 in
19:10 25.5 °F 14.3 °F 23.49 in Calm   -999.0 mph 62% 0 in
19:25 25.0 °F 14.9 °F 23.50 in Calm   -999.0 mph 65% 0 in
19:40 24.4 °F 14.3 °F 23.50 in Calm   -999.0 mph 65% 0 in
19:55 23.9 °F 14.2 °F 23.51 in Calm   -999.0 mph 66% 0 in
20:11 23.7 °F 14.7 °F 23.52 in Calm   -999.0 mph 68% 0 in
20:26 23.0 °F 14.0 °F 23.52 in Calm   -999.0 mph 68% 0 in
20:42 22.6 °F 13.6 °F 23.52 in Calm   -999.0 mph 68% 0 in
20:57 23.0 °F 14.0 °F 23.52 in Calm   -999.0 mph 68% 0 in
21:12 22.8 °F 13.1 °F 23.52 in Calm   -999.0 mph 66% 0 in
21:27 23.7 °F 12.9 °F 23.52 in Calm   -999.0 mph 63% 0 in
21:42 23.5 °F 11.6 °F 23.52 in Calm   -999.0 mph 60% 0 in
21:58 23.7 °F 12.6 °F 23.52 in Calm   -999.0 mph 62% 0 in
22:13 23.9 °F 12.4 °F 23.52 in Calm   -999.0 mph 61% 0 in
22:29 24.1 °F 11.8 °F 23.52 in Calm   -999.0 mph 59% 0 in
22:44 23.9 °F 12.0 °F 23.52 in Calm   -999.0 mph 60% 0 in
22:59 23.7 °F 12.2 °F 23.53 in Calm   -999.0 mph 61% 0 in
23:14 23.4 °F 12.7 °F 23.53 in Calm   -999.0 mph 63% 0 in
23:30 23.0 °F 12.3 °F 23.52 in Calm   -999.0 mph 63% 0 in
23:45 23.2 °F 13.2 °F 23.53 in Calm   -999.0 mph 65% 0 in
Big Bear CA Weather